Time;durP1;ratioP1;P1;durP2;ratioP2;P2;SDS_P1;SDS_P2;PMS_P1;PMS_P2;Temp;Humidity;BMP_temperature;BMP_pressure;BME280_temperature;BME280_humidity;BME280_pressure;Samples;Min_cycle;Max_cycle;Signal;HPM_P1;HPM_P2
2021/11/02 00:02:07;;;;;;;16.95;12.85;;;;;;;22.75;41.29;94401.94;4988094;28;20033;-60
2021/11/02 00:04:32;;;;;;;17.27;11.85;;;;;;;22.72;41.49;94390.09;4988182;28;20046;-60
2021/11/02 00:07:00;;;;;;;16.80;11.80;;;;;;;22.72;41.22;94381.94;4988457;28;20026;-63
2021/11/02 00:09:28;;;;;;;16.95;12.18;;;;;;;22.71;41.47;94382.47;4988441;28;20038;-61
2021/11/02 00:11:54;;;;;;;16.70;12.10;;;;;;;22.70;41.60;94391.88;4987073;28;20038;-59
2021/11/02 00:14:21;;;;;;;15.43;11.60;;;;;;;22.69;41.44;94393.13;4988214;28;20034;-63
2021/11/02 00:16:53;;;;;;;15.15;11.70;;;;;;;22.66;41.58;94394.16;4988281;28;20058;-62
2021/11/02 00:19:18;;;;;;;17.05;11.95;;;;;;;22.64;41.40;94399.38;4971652;28;20026;-63
2021/11/02 00:21:46;;;;;;;15.40;11.43;;;;;;;22.62;41.26;94405.34;4986818;28;20033;-60
2021/11/02 00:24:39;;;;;;;17.15;12.05;;;;;;;22.62;41.45;94399.91;4987676;28;20026;-60
2021/11/02 00:27:05;;;;;;;16.40;11.60;;;;;;;22.60;41.62;94383.38;4987849;28;20026;-60
2021/11/02 00:29:30;;;;;;;15.18;11.25;;;;;;;22.60;41.50;94385.34;4987983;28;20455;-60
2021/11/02 00:31:56;;;;;;;15.73;12.10;;;;;;;22.59;41.71;94389.34;4988069;28;20045;-61
2021/11/02 00:34:21;;;;;;;15.85;11.70;;;;;;;22.58;41.65;94385.13;4986476;28;20042;-61
2021/11/02 00:36:47;;;;;;;17.42;12.15;;;;;;;22.58;41.63;94376.97;4987972;28;20054;-61
2021/11/02 00:39:12;;;;;;;16.75;11.93;;;;;;;22.57;41.80;94389.09;4987750;28;20026;-61
2021/11/02 00:41:37;;;;;;;16.17;11.50;;;;;;;22.55;41.83;94388.88;4987386;28;20116;-61
2021/11/02 00:44:04;;;;;;;15.95;12.07;;;;;;;22.55;41.67;94378.72;4987798;28;20022;-61
2021/11/02 00:46:33;;;;;;;16.77;11.82;;;;;;;22.52;41.68;94368.88;4987754;28;20026;-60
2021/11/02 00:48:59;;;;;;;18.13;12.13;;;;;;;22.52;41.83;94368.16;4987756;28;20173;-61
2021/11/02 00:51:25;;;;;;;15.73;11.27;;;;;;;22.51;41.45;94367.44;4970330;28;20113;-61
2021/11/02 00:53:51;;;;;;;16.05;12.07;;;;;;;22.49;41.84;94352.88;4989361;28;20559;-60
2021/11/02 00:56:16;;;;;;;16.55;11.88;;;;;;;22.50;41.55;94365.22;4987920;28;20022;-60
2021/11/02 00:58:41;;;;;;;16.02;12.23;;;;;;;22.49;41.78;94363.75;4970084;28;20072;-61
2021/11/02 01:03:42;;;;;;;17.25;11.73;;;;;;;22.45;41.77;94363.31;4390574;26;20059;-61
2021/11/02 01:06:08;;;;;;;15.80;11.77;;;;;;;22.44;41.85;94362.59;4967868;28;20031;-61
2021/11/02 01:08:33;;;;;;;15.20;11.57;;;;;;;22.45;41.59;94366.03;4950991;28;20022;-61
2021/11/02 01:10:59;;;;;;;16.52;11.57;;;;;;;22.43;41.66;94365.81;4968008;28;20033;-60
2021/11/02 01:13:26;;;;;;;15.98;11.57;;;;;;;22.43;41.78;94374.00;4967831;28;20030;-61
2021/11/02 01:15:52;;;;;;;14.55;11.13;;;;;;;22.42;41.56;94375.25;4968124;28;20051;-61
2021/11/02 01:18:17;;;;;;;16.92;11.10;;;;;;;22.41;41.74;94365.63;4968039;28;20036;-61
2021/11/02 01:20:43;;;;;;;15.40;11.80;;;;;;;22.39;41.72;94362.69;4966828;28;20046;-61
2021/11/02 01:23:09;;;;;;;17.13;11.65;;;;;;;22.41;41.83;94373.78;4967868;28;20031;-61
2021/11/02 01:25:34;;;;;;;14.50;10.90;;;;;;;22.40;41.81;94366.88;4966585;28;20532;-60
2021/11/02 01:28:00;;;;;;;16.75;11.77;;;;;;;22.40;41.67;94361.44;4966819;28;20081;-61
2021/11/02 01:30:25;;;;;;;14.85;11.65;;;;;;;22.38;41.55;94358.50;4950710;28;20050;-59
2021/11/02 01:32:51;;;;;;;15.85;11.30;;;;;;;22.40;41.64;94355.25;4966517;28;20081;-61
2021/11/02 01:35:16;;;;;;;15.43;11.73;;;;;;;22.36;41.81;94352.84;4967507;28;20026;-61
2021/11/02 01:37:42;;;;;;;17.30;11.80;;;;;;;22.36;41.89;94349.38;4967949;28;20042;-61
2021/11/02 01:40:11;;;;;;;13.70;10.68;;;;;;;22.35;41.73;94359.53;4967422;28;20054;-60
2021/11/02 01:42:36;;;;;;;14.88;11.55;;;;;;;22.34;41.81;94352.63;4967428;28;20061;-61
2021/11/02 01:45:03;;;;;;;16.50;11.75;;;;;;;22.34;41.74;94341.72;4967625;28;20030;-60
2021/11/02 01:47:29;;;;;;;15.50;11.80;;;;;;;22.32;41.84;94336.09;4967359;28;20060;-60
2021/11/02 01:49:55;;;;;;;15.27;11.27;;;;;;;22.33;41.79;94337.56;4966211;28;20054;-60
2021/11/02 01:52:20;;;;;;;15.00;11.02;;;;;;;22.31;41.80;94334.59;4967232;28;20065;-60
2021/11/02 01:54:46;;;;;;;15.30;11.15;;;;;;;22.32;41.73;94336.09;4966389;28;20015;-60
2021/11/02 01:57:11;;;;;;;14.93;11.48;;;;;;;22.32;41.87;94327.94;4967452;28;20095;-60
2021/11/02 01:59:37;;;;;;;15.80;11.57;;;;;;;22.32;41.78;94327.94;4949248;28;20030;-61
2021/11/02 02:02:30;;;;;;;15.48;11.10;;;;;;;22.29;41.95;94312.66;4967038;28;20030;-61
2021/11/02 02:05:05;;;;;;;14.85;11.10;;;;;;;22.30;42.03;94308.69;4946599;29;20062;-61
2021/11/02 02:07:42;;;;;;;15.48;11.45;;;;;;;22.30;41.69;94308.69;4939822;29;20038;-60
2021/11/02 02:10:13;;;;;;;14.32;10.98;;;;;;;22.28;41.77;94305.72;4947755;29;20058;-60
2021/11/02 02:13:15;;;;;;;14.75;10.95;;;;;;;22.27;42.08;94309.72;4947320;28;20050;-60
2021/11/02 02:15:53;;;;;;;14.88;10.75;;;;;;;22.28;41.74;94300.28;4936111;28;20510;-63
2021/11/02 02:18:22;;;;;;;15.48;11.52;;;;;;;22.28;41.69;94289.41;4930267;29;20437;-61
2021/11/02 02:21:25;;;;;;;14.77;10.93;;;;;;;22.27;41.80;94287.97;4946114;29;20488;-61
2021/11/02 02:23:53;;;;;;;13.50;10.32;;;;;;;22.28;41.90;94288.69;4947202;29;20031;-61
2021/11/02 02:26:50;;;;;;;13.55;10.02;;;;;;;22.26;41.74;94288.47;4947221;29;20083;-61
2021/11/02 02:29:16;;;;;;;14.85;10.80;;;;;;;22.25;41.87;94301.31;4945937;29;20521;-60
2021/11/02 02:31:43;;;;;;;15.48;11.48;;;;;;;22.26;41.81;94275.59;4947311;29;20031;-61
2021/11/02 02:34:12;;;;;;;14.52;10.43;;;;;;;22.25;41.83;94274.13;4930133;29;20035;-61
2021/11/02 02:36:38;;;;;;;15.05;11.05;;;;;;;22.25;41.80;94268.69;4945575;29;20283;-60
2021/11/02 02:39:04;;;;;;;13.98;10.80;;;;;;;22.23;41.84;94265.75;4929740;29;20113;-61
2021/11/02 02:41:30;;;;;;;15.15;10.75;;;;;;;22.24;41.56;94267.25;4929610;29;20059;-61
2021/11/02 02:43:55;;;;;;;14.00;10.43;;;;;;;22.22;41.93;94258.13;4945813;29;20042;-60
2021/11/02 02:46:21;;;;;;;15.10;10.65;;;;;;;22.21;41.90;94246.53;4946660;29;20023;-61
2021/11/02 02:48:46;;;;;;;15.85;10.93;;;;;;;22.24;41.81;94250.91;4928585;29;20019;-60
2021/11/02 02:51:13;;;;;;;14.35;10.75;;;;;;;22.23;41.58;94248.72;4930131;29;20784;-61
2021/11/02 02:53:42;;;;;;;14.27;10.20;;;;;;;22.21;41.62;94262.84;4929834;29;20617;-61
2021/11/02 02:56:08;;;;;;;14.48;10.52;;;;;;;22.22;41.67;94263.56;4945313;29;20036;-60
2021/11/02 02:58:35;;;;;;;14.40;10.40;;;;;;;22.18;41.84;94258.41;4946856;29;20071;-61
2021/11/02 03:01:02;;;;;;;14.02;10.50;;;;;;;22.20;41.82;94255.91;4945258;29;20490;-60
2021/11/02 03:03:27;;;;;;;14.98;10.93;;;;;;;22.22;41.77;94258.84;4947664;28;20058;-61
2021/11/02 03:05:53;;;;;;;15.23;10.27;;;;;;;22.21;41.91;94268.28;4951910;28;20041;-60
2021/11/02 03:08:20;;;;;;;14.05;10.15;;;;;;;22.19;41.74;94270.72;4967775;28;20547;-61
2021/11/02 03:10:45;;;;;;;15.43;10.75;;;;;;;22.19;41.99;94265.28;4950593;28;20034;-60
2021/11/02 03:13:13;;;;;;;13.27;10.20;;;;;;;22.19;41.74;94251.69;4966144;28;20018;-61
2021/11/02 03:51:06;;;;;;;14.02;10.40;;;;;;;22.14;41.98;94192.72;4969499;28;20042;-60
2021/11/02 04:22:15;;;;;;;13.40;9.98;;;;;;;22.12;41.81;94192.50;4968211;28;20069;-62
2021/11/02 05:09:50;;;;;;;11.13;8.70;;;;;;;22.83;40.59;94146.91;4937719;28;20065;-61
2021/11/02 05:48:34;;;;;;;23.17;15.68;;;;;;;24.44;38.29;94134.69;4964591;28;20057;-61
2021/11/02 05:55:47;;;;;;;37.47;22.63;;;;;;;24.74;37.91;94143.00;4965338;28;20035;-61
2021/11/02 05:58:38;;;;;;;35.35;23.13;;;;;;;24.83;37.67;94138.50;4965417;28;20045;-61
2021/11/02 06:01:09;;;;;;;31.33;19.95;;;;;;;24.90;37.19;94140.56;4951112;28;20030;-61
2021/11/02 06:03:44;;;;;;;33.00;20.50;;;;;;;24.88;37.81;94140.34;4964923;28;20698;-61
2021/11/02 06:06:42;;;;;;;31.00;20.13;;;;;;;24.98;37.13;94141.31;4965444;28;20462;-61
2021/11/02 06:09:23;;;;;;;29.77;19.02;;;;;;;25.07;37.07;94135.38;4937723;28;20053;-61
2021/11/02 06:29:00;;;;;;;25.15;16.50;;;;;;;25.42;38.94;94132.53;4951730;28;20520;-61
2021/11/02 06:37:27;;;;;;;23.88;15.88;;;;;;;25.55;39.46;94134.41;4966281;28;20054;-61
2021/11/02 06:40:11;;;;;;;24.08;16.13;;;;;;;25.60;38.43;94141.69;4955902;28;20046;-61
2021/11/02 06:50:32;;;;;;;21.20;15.70;;;;;;;25.55;37.93;94128.94;4966191;28;20031;-61
2021/11/02 07:19:10;;;;;;;21.13;14.80;;;;;;;25.79;36.92;94121.69;4965827;28;20035;-63
2021/11/02 07:24:11;;;;;;;17.90;13.35;;;;;;;25.72;37.06;94123.69;4965823;28;20511;-63
2021/11/02 07:26:52;;;;;;;19.90;13.05;;;;;;;25.80;36.73;94120.41;4948577;28;20026;-63
2021/11/02 08:46:58;;;;;;;15.32;11.63;;;;;;;24.26;39.00;94130.16;4968135;28;20093;-65
2021/11/02 08:49:23;;;;;;;17.05;11.63;;;;;;;24.27;39.04;94137.06;4951242;28;20034;-65
2021/11/02 08:51:48;;;;;;;15.70;11.30;;;;;;;24.23;39.19;94135.94;4967977;28;20398;-64
2021/11/02 08:54:16;;;;;;;16.38;11.25;;;;;;;24.21;39.29;94144.66;4951117;28;20560;-63
2021/11/02 08:56:41;;;;;;;15.77;11.30;;;;;;;24.16;38.96;94142.81;4968047;28;20098;-63
2021/11/02 08:59:07;;;;;;;15.45;11.52;;;;;;;24.17;38.95;94138.09;4968130;28;20034;-63
2021/11/02 09:01:32;;;;;;;18.80;13.10;;;;;;;24.04;38.10;94141.66;4968020;28;20038;-63
2021/11/02 09:04:00;;;;;;;16.40;11.43;;;;;;;24.03;39.08;94144.91;4968139;28;20055;-63
2021/11/02 09:06:27;;;;;;;16.80;11.30;;;;;;;24.03;39.10;94145.63;4967916;28;20105;-63
2021/11/02 09:08:55;;;;;;;16.95;11.23;;;;;;;24.02;38.85;94149.63;4950966;28;20030;-63
2021/11/02 09:11:25;;;;;;;17.67;11.80;;;;;;;24.02;39.43;94163.28;4933590;28;20042;-64
2021/11/02 09:13:51;;;;;;;16.10;10.98;;;;;;;23.99;39.30;94156.16;4967826;28;20027;-63
2021/11/02 09:16:18;;;;;;;16.52;10.93;;;;;;;23.99;39.50;94156.16;4966354;28;20639;-64
2021/11/02 09:18:44;;;;;;;16.38;10.93;;;;;;;23.96;39.32;94156.47;4963580;28;20038;-63
2021/11/02 09:21:09;;;;;;;16.08;10.38;;;;;;;23.96;39.41;94159.94;4948145;29;20023;-63
2021/11/02 09:23:36;;;;;;;15.77;10.73;;;;;;;23.91;39.29;94155.34;4947436;28;20041;-64
2021/11/02 09:26:02;;;;;;;14.80;10.77;;;;;;;23.89;39.57;94163.34;4948002;29;20020;-63
2021/11/02 09:28:27;;;;;;;15.48;10.95;;;;;;;23.86;39.25;94153.50;4948288;29;20058;-63
2021/11/02 09:30:54;;;;;;;16.15;10.93;;;;;;;23.84;39.78;94155.31;4948410;29;20486;-63
2021/11/02 09:33:19;;;;;;;15.88;10.38;;;;;;;23.81;39.49;94169.25;4930718;29;20114;-63
2021/11/02 09:35:44;;;;;;;15.63;11.20;;;;;;;23.79;39.47;94130.91;4948062;29;20019;-63
2021/11/02 09:38:23;;;;;;;17.67;11.25;;;;;;;23.78;39.48;94151.25;4931035;29;20023;-63
2021/11/02 09:41:31;;;;;;;15.57;11.27;;;;;;;23.72;39.73;94126.09;4948168;29;20019;-63
2021/11/02 09:44:14;;;;;;;15.52;11.18;;;;;;;23.69;40.04;94116.25;4949911;28;20043;-63
2021/11/02 09:47:12;;;;;;;14.38;10.77;;;;;;;23.65;39.58;94118.59;4967403;28;20022;-64
2021/11/02 09:49:53;;;;;;;15.50;10.68;;;;;;;23.62;40.25;94106.00;4942375;28;20034;-63
2021/11/02 09:52:55;;;;;;;17.02;11.20;;;;;;;23.59;40.10;94098.91;4966222;28;20402;-63
2021/11/02 09:55:25;;;;;;;16.10;10.85;;;;;;;23.56;40.08;94102.69;4967916;28;20085;-62
2021/11/02 09:58:09;;;;;;;15.63;10.60;;;;;;;23.54;40.31;94094.28;4967194;28;20035;-63
2021/11/02 10:00:40;;;;;;;15.98;11.60;;;;;;;23.49;40.26;94087.00;4964340;28;20563;-65
2021/11/02 10:03:26;;;;;;;15.68;10.98;;;;;;;23.51;39.95;94079.75;4950952;28;20074;-63
2021/11/02 10:06:16;;;;;;;15.65;10.65;;;;;;;23.54;40.09;94067.03;4966692;28;20100;-61
2021/11/02 10:08:58;;;;;;;15.85;10.40;;;;;;;23.54;40.32;94056.16;4949865;28;20050;-61
2021/11/02 10:11:43;;;;;;;14.50;10.63;;;;;;;23.56;40.45;94076.16;4949727;28;20054;-61
2021/11/02 10:14:17;;;;;;;13.43;10.57;;;;;;;23.63;40.91;94074.75;4967055;28;20031;-61
2021/11/02 10:17:04;;;;;;;14.45;10.05;;;;;;;23.64;40.56;94065.34;4966466;28;20121;-61
2021/11/02 10:19:33;;;;;;;14.57;10.23;;;;;;;23.72;40.90;94066.13;4966814;28;20053;-61
2021/11/02 10:22:11;;;;;;;14.50;10.32;;;;;;;23.80;40.65;94069.66;4966635;28;20038;-60
2021/11/02 10:24:45;;;;;;;14.75;10.27;;;;;;;23.90;40.23;94050.28;4966568;28;20093;-60
2021/11/02 10:27:17;;;;;;;16.48;10.52;;;;;;;24.01;40.57;94049.97;4966692;28;20037;-62
2021/11/02 10:30:03;;;;;;;15.25;10.27;;;;;;;24.12;40.33;94068.78;4966882;28;20035;-62
2021/11/02 10:32:29;;;;;;;12.98;10.02;;;;;;;24.21;39.94;94068.28;4966134;28;20042;-61
2021/11/02 10:35:29;;;;;;;15.00;10.32;;;;;;;24.34;40.08;94081.84;4948422;28;20085;-62
2021/11/02 10:38:11;;;;;;;15.20;10.85;;;;;;;24.45;39.66;94070.63;4959008;28;20051;-62
2021/11/02 10:40:50;;;;;;;15.70;10.13;;;;;;;24.53;39.51;94049.56;4966327;28;20034;-62
2021/11/02 10:43:24;;;;;;;15.07;11.35;;;;;;;24.62;39.43;94029.94;4948980;28;20035;-62
2021/11/02 10:46:06;;;;;;;15.32;11.10;;;;;;;24.74;39.15;94025.59;4966293;28;20117;-61
2021/11/02 10:48:48;;;;;;;14.77;10.15;;;;;;;24.90;39.10;94038.75;4966327;28;20027;-60
2021/11/02 10:51:35;;;;;;;16.70;11.27;;;;;;;25.01;38.63;94038.47;4965582;28;20035;-60
2021/11/02 10:54:21;;;;;;;14.77;11.10;;;;;;;25.10;38.43;94027.72;4965177;28;20685;-60
2021/11/02 10:57:17;;;;;;;14.00;10.10;;;;;;;25.17;38.19;94029.75;4965963;28;20118;-61
2021/11/02 10:59:47;;;;;;;13.20;9.98;;;;;;;25.24;38.34;94023.56;4966304;28;20038;-60
2021/11/02 11:02:28;;;;;;;14.52;10.82;;;;;;;25.33;37.88;94042.16;4965350;28;20096;-60
2021/11/02 11:04:58;;;;;;;14.15;10.30;;;;;;;25.48;37.70;94042.16;4965930;28;20035;-60
2021/11/02 11:07:26;;;;;;;16.17;11.45;;;;;;;25.54;37.74;94039.97;4966062;28;20031;-60
2021/11/02 11:09:55;;;;;;;14.40;10.82;;;;;;;25.66;37.35;94049.31;4965175;28;20038;-62
2021/11/02 11:12:21;;;;;;;14.80;10.88;;;;;;;25.67;37.31;94037.81;4858589;28;20112;-61
2021/11/02 11:14:46;;;;;;;14.25;10.82;;;;;;;25.77;37.05;94040.72;4948006;28;20054;-61
2021/11/02 11:17:16;;;;;;;16.25;11.23;;;;;;;25.80;37.33;94038.34;4965753;28;20081;-61
2021/11/02 11:20:10;;;;;;;15.43;11.00;;;;;;;25.86;37.14;94027.97;4966040;28;20026;-62
2021/11/02 11:22:42;;;;;;;16.98;11.23;;;;;;;25.60;36.26;94043.25;4950313;28;20047;-64
2021/11/02 11:25:16;;;;;;;18.25;10.95;;;;;;;25.58;37.22;94035.59;4965434;28;20031;-63
2021/11/02 11:27:55;;;;;;;15.77;11.40;;;;;;;25.71;37.07;94026.50;4947612;28;20035;-62
2021/11/02 11:30:21;;;;;;;13.60;10.63;;;;;;;25.74;37.45;94041.81;4965775;28;20027;-62
2021/11/02 11:32:47;;;;;;;16.08;11.10;;;;;;;25.83;37.15;94034.53;4965909;28;20556;-63
2021/11/02 11:35:13;;;;;;;14.15;10.80;;;;;;;25.89;37.13;94032.34;4932152;28;20034;-62
2021/11/02 11:37:40;;;;;;;15.00;10.75;;;;;;;25.95;36.85;94035.59;4954180;28;20030;-62
2021/11/02 11:40:06;;;;;;;14.82;11.00;;;;;;;25.97;36.77;94038.53;4964960;28;20038;-63
2021/11/02 11:42:32;;;;;;;13.98;10.52;;;;;;;26.00;36.78;94042.16;4965729;28;20058;-64
2021/11/02 11:45:02;;;;;;;16.23;11.05;;;;;;;26.03;36.74;94036.31;4965003;28;20122;-63
2021/11/02 11:47:28;;;;;;;14.98;11.25;;;;;;;26.02;36.66;94034.88;4967750;28;20512;-64
2021/11/02 11:49:54;;;;;;;14.05;10.15;;;;;;;26.02;36.71;94045.81;4969409;28;20026;-64
2021/11/02 11:52:23;;;;;;;16.23;11.38;;;;;;;26.02;36.71;94040.34;4969180;28;20027;-64
2021/11/02 11:54:57;;;;;;;13.83;10.30;;;;;;;25.94;36.97;94028.66;4969396;28;20084;-64
2021/11/02 11:57:27;;;;;;;13.85;10.18;;;;;;;26.00;36.53;94015.53;4968943;28;20329;-64
2021/11/02 11:59:59;;;;;;;;;;;;;;;25.83;37.24;94023.59;4969799;28;20551;-63
2021/11/02 12:02:29;;;;;;;14.10;10.15;;;;;;;25.82;37.27;94013.91;4968949;28;19914;-64
2021/11/02 12:04:58;;;;;;;13.30;10.48;;;;;;;25.77;37.39;94018.84;4967899;28;20591;-63
2021/11/02 12:07:35;;;;;;;15.38;10.80;;;;;;;25.67;37.19;94020.69;4967826;28;20019;-64
2021/11/02 12:10:09;;;;;;;14.73;10.40;;;;;;;25.66;37.50;94024.69;4968207;28;20042;-64
2021/11/02 12:12:35;;;;;;;14.25;10.60;;;;;;;25.58;37.44;94007.53;4969191;28;20030;-64
2021/11/02 12:15:00;;;;;;;13.15;10.20;;;;;;;25.51;37.52;94002.78;4968974;28;20570;-64
2021/11/02 12:17:26;;;;;;;14.60;11.00;;;;;;;25.45;37.97;94013.19;4951478;28;20124;-65
2021/11/02 12:20:13;;;;;;;14.90;11.30;;;;;;;25.40;37.79;94003.88;4967513;28;20038;-63
2021/11/02 12:22:58;;;;;;;13.95;10.15;;;;;;;25.31;37.68;94000.97;4968478;28;20042;-63
2021/11/02 12:25:28;;;;;;;14.23;10.65;;;;;;;25.24;38.15;94000.97;4968627;28;20027;-63
2021/11/02 12:27:56;;;;;;;14.57;9.85;;;;;;;25.21;38.15;94002.78;4968583;28;20285;-63
2021/11/02 12:30:22;;;;;;;14.38;10.48;;;;;;;25.11;38.36;93993.69;4951258;28;20027;-63
2021/11/02 12:32:52;;;;;;;15.43;10.93;;;;;;;25.08;38.36;94000.25;4968682;28;20159;-63
2021/11/02 12:35:48;;;;;;;15.68;10.95;;;;;;;25.04;38.61;94002.59;4951792;28;20229;-63
2021/11/02 12:38:14;;;;;;;14.00;11.05;;;;;;;24.99;38.46;94003.50;4950273;28;20773;-64
2021/11/02 12:40:40;;;;;;;13.40;10.40;;;;;;;24.93;38.50;94005.66;4968606;28;20038;-62
2021/11/02 12:43:23;;;;;;;13.75;10.10;;;;;;;24.93;38.80;94004.91;4968770;28;20055;-62
2021/11/02 12:45:48;;;;;;;13.93;9.73;;;;;;;24.85;38.69;94015.81;4968122;28;20034;-63
2021/11/02 12:48:14;;;;;;;13.82;10.02;;;;;;;24.82;38.86;93995.03;4966922;28;20049;-63
2021/11/02 12:50:39;;;;;;;15.30;10.65;;;;;;;24.80;38.67;94007.03;4950894;28;20323;-63
2021/11/02 12:53:05;;;;;;;12.63;9.48;;;;;;;24.78;38.51;94004.13;4968193;28;20689;-63
2021/11/02 12:55:32;;;;;;;13.32;9.82;;;;;;;24.73;38.82;94013.22;4950921;28;20090;-63
2021/11/02 12:58:14;;;;;;;14.23;10.20;;;;;;;24.69;38.87;94007.38;4967879;28;20042;-63
2021/11/02 13:00:46;;;;;;;13.07;10.13;;;;;;;24.67;39.20;94004.47;4968240;28;20536;-63
2021/11/02 13:03:28;;;;;;;15.00;10.45;;;;;;;24.65;39.08;94002.28;4967816;28;20178;-62
2021/11/02 13:06:06;;;;;;;13.45;10.55;;;;;;;24.62;38.82;94013.53;4966852;28;20398;-63
2021/11/02 13:08:42;;;;;;;13.88;10.00;;;;;;;24.62;38.99;94013.53;4967964;28;20074;-62
2021/11/02 13:11:10;;;;;;;13.32;9.75;;;;;;;24.58;39.29;94013.91;4967804;28;20505;-63
2021/11/02 13:13:58;;;;;;;14.05;10.55;;;;;;;24.53;38.96;94022.28;4950567;28;20031;-63
2021/11/02 13:16:23;;;;;;;12.75;10.27;;;;;;;24.50;39.05;94020.63;4966543;28;20034;-63
2021/11/02 13:18:49;;;;;;;13.10;9.88;;;;;;;24.50;39.02;94017.91;4967863;28;20069;-62
2021/11/02 13:21:30;;;;;;;13.07;9.93;;;;;;;24.48;39.15;94020.41;4949335;28;20030;-64
2021/11/02 13:23:58;;;;;;;12.38;9.38;;;;;;;24.46;39.50;94022.97;4966807;28;20018;-63
2021/11/02 13:26:23;;;;;;;14.07;10.98;;;;;;;24.46;39.32;94015.50;4967362;28;20031;-63
2021/11/02 13:28:49;;;;;;;13.35;9.85;;;;;;;24.43;39.54;94015.84;4967518;28;20096;-63
2021/11/02 13:31:29;;;;;;;14.32;9.82;;;;;;;24.41;39.12;94021.13;4966207;28;20065;-63
2021/11/02 13:33:56;;;;;;;13.57;9.88;;;;;;;24.44;39.67;94014.59;4967666;28;20035;-63
2021/11/02 13:36:22;;;;;;;12.68;9.30;;;;;;;24.49;39.48;94016.44;4967319;28;20423;-63
2021/11/02 13:38:47;;;;;;;13.00;9.52;;;;;;;24.49;39.60;94006.22;4941877;28;20035;-63
2021/11/02 13:41:21;;;;;;;13.27;9.50;;;;;;;24.52;39.01;94020.81;4953078;28;20413;-63
2021/11/02 13:44:08;;;;;;;12.52;9.07;;;;;;;24.49;39.74;94010.97;4948095;29;20027;-63
2021/11/02 13:46:38;;;;;;;13.00;9.15;;;;;;;24.52;39.46;94015.34;4947436;28;20039;-63
2021/11/02 13:49:05;;;;;;;14.35;9.77;;;;;;;24.52;39.59;94018.06;4948127;29;20023;-63
2021/11/02 13:51:31;;;;;;;12.90;9.13;;;;;;;24.49;39.56;94022.59;4947611;29;20051;-63
2021/11/02 13:53:56;;;;;;;13.50;9.43;;;;;;;24.46;39.89;94023.69;4947796;29;20070;-63
2021/11/02 13:56:27;;;;;;;12.50;9.05;;;;;;;24.44;39.35;94036.44;4930424;29;20691;-63
2021/11/02 13:58:53;;;;;;;13.82;9.75;;;;;;;24.37;39.48;94034.38;4930683;29;20034;-63
2021/11/02 14:01:21;;;;;;;13.02;9.50;;;;;;;24.36;39.98;94032.91;4930372;29;20494;-63
2021/11/02 14:03:59;;;;;;;12.88;9.65;;;;;;;24.31;39.88;94033.78;4911202;29;20097;-63
2021/11/02 14:06:25;;;;;;;13.68;9.90;;;;;;;24.29;40.13;94033.59;4928628;29;20038;-60
2021/11/02 14:08:51;;;;;;;14.93;9.23;;;;;;;24.29;39.95;94030.88;4928141;29;20023;-59
2021/11/02 14:11:19;;;;;;;12.32;8.82;;;;;;;24.30;39.66;94024.13;4930533;29;20042;-60
2021/11/02 14:13:46;;;;;;;12.77;9.52;;;;;;;24.25;40.34;94022.28;4947284;28;20805;-61
2021/11/02 14:16:12;;;;;;;12.98;9.10;;;;;;;24.27;40.53;94022.47;4947218;29;20773;-61
2021/11/02 14:18:41;;;;;;;12.68;9.05;;;;;;;24.27;40.31;94027.94;4947534;29;20031;-61
2021/11/02 14:21:08;;;;;;;12.90;9.38;;;;;;;24.28;40.23;94015.75;4947796;29;20517;-60
2021/11/02 14:23:41;;;;;;;12.75;8.82;;;;;;;24.33;40.52;94025.81;4947518;28;20030;-60
2021/11/02 14:26:26;;;;;;;12.50;9.35;;;;;;;24.30;40.19;94026.84;4947471;29;20034;-60
2021/11/02 14:28:58;;;;;;;11.85;8.43;;;;;;;24.41;40.29;94023.88;4916888;28;20035;-60
2021/11/02 14:31:40;;;;;;;12.15;8.90;;;;;;;24.49;40.04;94021.88;4929915;29;20054;-60
2021/11/02 14:34:08;;;;;;;12.32;8.52;;;;;;;24.58;39.96;94024.09;4946881;28;20031;-60
2021/11/02 14:36:40;;;;;;;10.63;8.45;;;;;;;24.65;39.79;94023.38;4929952;29;20027;-60
2021/11/02 14:39:12;;;;;;;10.60;7.95;;;;;;;24.75;39.46;94027.06;4947233;28;20042;-59
2021/11/02 14:41:44;;;;;;;10.60;7.85;;;;;;;24.83;39.51;94034.75;4914309;29;20521;-60
2021/11/02 14:44:27;;;;;;;11.65;8.48;;;;;;;24.91;39.41;94035.47;4930065;29;20027;-60
2021/11/02 14:46:59;;;;;;;11.82;8.90;;;;;;;24.95;38.88;94041.31;4914735;29;20501;-60
2021/11/02 14:49:27;;;;;;;11.13;8.43;;;;;;;25.05;38.92;94034.09;4930063;29;20545;-60
2021/11/02 14:52:03;;;;;;;10.90;8.60;;;;;;;25.14;38.42;94022.66;4946751;29;20519;-60
2021/11/02 14:54:29;;;;;;;12.30;8.75;;;;;;;25.21;38.39;94029.38;4930155;29;20564;-60
2021/11/02 14:57:35;;;;;;;10.65;8.52;;;;;;;25.26;38.35;94034.69;4913412;29;20039;-60
2021/11/02 15:00:03;;;;;;;11.70;8.73;;;;;;;25.34;38.09;94038.16;4945646;28;20039;-60
2021/11/02 15:02:38;;;;;;;12.10;8.80;;;;;;;25.45;38.13;94043.97;4948531;28;20494;-60
2021/11/02 15:05:06;;;;;;;12.02;8.68;;;;;;;25.50;37.95;94045.06;4964980;28;20037;-58
2021/11/02 15:07:33;;;;;;;11.82;8.80;;;;;;;25.57;38.04;94056.00;4965452;28;20023;-60
2021/11/02 15:09:58;;;;;;;14.15;9.02;;;;;;;25.60;38.10;94054.19;4948046;28;20133;-60
2021/11/02 15:12:24;;;;;;;11.98;8.55;;;;;;;25.68;37.85;94049.47;4948371;28;20057;-60
2021/11/02 15:14:49;;;;;;;11.07;8.23;;;;;;;25.69;38.00;94050.94;4966976;28;20031;-60
2021/11/02 15:17:14;;;;;;;11.15;8.32;;;;;;;25.73;37.68;94034.91;4949230;28;20034;-60
2021/11/02 15:19:40;;;;;;;12.90;8.73;;;;;;;25.79;37.65;94054.59;4965703;28;20030;-61
2021/11/02 15:22:08;;;;;;;11.93;9.30;;;;;;;25.84;37.43;94049.69;4963437;28;20026;-61
2021/11/02 15:24:35;;;;;;;12.90;8.52;;;;;;;25.88;37.01;94058.22;4948071;28;20081;-61
2021/11/02 15:27:22;;;;;;;14.63;8.90;;;;;;;25.88;37.13;94058.22;4949198;28;20161;-60
2021/11/02 15:29:52;;;;;;;12.15;9.23;;;;;;;25.92;37.22;94047.66;4965787;28;20031;-60
2021/11/02 15:32:21;;;;;;;11.80;8.65;;;;;;;26.02;37.37;94051.28;4949019;28;20417;-60
2021/11/02 15:34:52;;;;;;;12.68;8.52;;;;;;;26.02;37.26;94045.81;4948908;28;20656;-60
2021/11/02 15:37:25;;;;;;;13.65;9.10;;;;;;;25.98;37.25;94045.47;4948108;28;20070;-60
2021/11/02 15:40:10;;;;;;;13.63;8.30;;;;;;;26.01;37.06;94060.78;4929963;29;20429;-61
2021/11/02 15:42:41;;;;;;;12.18;8.10;;;;;;;26.06;37.26;94051.63;4946620;29;20039;-61
2021/11/02 15:45:11;;;;;;;11.38;8.65;;;;;;;26.20;36.59;94052.88;4948010;28;20038;-62
2021/11/02 15:47:49;;;;;;;16.85;8.95;;;;;;;26.28;36.65;94056.38;4963358;28;20089;-60
2021/11/02 15:50:23;;;;;;;11.00;8.80;;;;;;;26.27;36.63;94046.66;4948969;28;20622;-61
2021/11/02 15:52:49;;;;;;;10.27;8.00;;;;;;;26.21;36.73;94051.63;4949020;28;20505;-61
2021/11/02 15:55:19;;;;;;;11.35;8.13;;;;;;;26.23;36.81;94043.56;4965729;28;20057;-61
2021/11/02 15:57:57;;;;;;;11.70;8.80;;;;;;;26.21;36.84;94040.66;4965667;28;20038;-61
2021/11/02 16:00:23;;;;;;;11.10;8.10;;;;;;;26.33;36.63;94047.94;4932531;28;20039;-60
2021/11/02 16:02:49;;;;;;;12.55;8.25;;;;;;;26.37;36.53;94053.06;4965400;28;20741;-61
2021/11/02 16:05:16;;;;;;;10.88;8.15;;;;;;;26.40;36.31;94057.44;4948624;28;20034;-61
2021/11/02 16:07:42;;;;;;;10.15;7.75;;;;;;;26.34;36.17;94074.06;4965500;28;20027;-61
2021/11/02 16:10:07;;;;;;;9.98;7.43;;;;;;;26.37;36.56;94069.50;4948034;28;20061;-61
2021/11/02 16:12:36;;;;;;;10.70;7.40;;;;;;;26.46;36.17;94080.59;4965226;28;20092;-61
2021/11/02 16:15:13;;;;;;;11.27;8.38;;;;;;;26.47;36.01;94084.06;4965295;28;20477;-60
2021/11/02 16:17:43;;;;;;;11.52;8.63;;;;;;;26.55;36.17;94084.78;4964159;28;20525;-61
2021/11/02 16:20:14;;;;;;;11.23;8.32;;;;;;;26.50;36.31;94085.69;4964804;28;20019;-61
2021/11/02 16:22:47;;;;;;;10.15;7.78;;;;;;;26.54;35.98;94083.31;4964698;28;20018;-60
2021/11/02 16:25:12;;;;;;;10.75;8.18;;;;;;;26.51;36.13;94095.38;4947525;28;20523;-61
2021/11/02 16:27:38;;;;;;;9.90;7.72;;;;;;;26.49;36.20;94092.47;4964495;28;20019;-62
2021/11/02 16:30:23;;;;;;;11.20;7.53;;;;;;;26.43;36.18;94108.38;4947213;28;20414;-62